Time;durP1;ratioP1;P1;durP2;ratioP2;P2;SDS_P1;SDS_P2;PMS_P1;PMS_P2;Temp;Humidity;BMP_temperature;BMP_pressure;BME280_temperature;BME280_humidity;BME280_pressure;Samples;Min_cycle;Max_cycle;Signal;HPM_P1;HPM_P2
2023/01/07 00:01:23;;;;;;;45.50;3.65;;;;;;;21.37;59.91;99815.53;7305543;19;129113;-37
2023/01/07 00:03:50;;;;;;;82.38;6.30;;;;;;;21.60;59.57;99816.97;7303088;19;130370;-37
2023/01/07 00:06:21;;;;;;;46.17;3.83;;;;;;;21.95;58.25;99811.25;7306502;19;130017;-36
2023/01/07 00:08:48;;;;;;;53.15;4.28;;;;;;;22.53;56.32;99801.63;7307483;19;129967;-40
2023/01/07 00:11:16;;;;;;;35.30;3.20;;;;;;;22.70;55.11;99782.56;7305456;19;129526;-40
2023/01/07 00:13:42;;;;;;;68.38;5.25;;;;;;;22.99;54.42;99789.34;7306166;19;129448;-39
2023/01/07 00:16:10;;;;;;;48.58;3.88;;;;;;;23.33;54.19;99797.53;7306711;19;129634;-37
2023/01/07 00:18:36;;;;;;;66.78;5.78;;;;;;;23.62;53.40;99800.00;7308259;19;130825;-38
2023/01/07 00:21:05;;;;;;;51.30;4.32;;;;;;;23.79;52.99;99799.19;7304737;19;129991;-40
2023/01/07 00:23:32;;;;;;;60.25;5.25;;;;;;;24.03;51.83;99791.59;7307145;19;130975;-37
2023/01/07 00:26:03;;;;;;;65.13;4.93;;;;;;;24.13;51.91;99797.59;7305140;19;131009;-39
2023/01/07 00:28:28;;;;;;;44.28;3.83;;;;;;;24.29;50.99;99776.69;7307606;19;129818;-37
2023/01/07 00:31:01;;;;;;;59.20;4.47;;;;;;;24.51;50.75;99799.03;7303573;19;130601;-40
2023/01/07 00:33:29;;;;;;;59.60;4.65;;;;;;;24.73;50.30;99795.91;7302609;19;129770;-41
2023/01/07 00:36:02;;;;;;;58.67;4.50;;;;;;;24.74;50.50;99793.16;7305105;19;129840;-40
2023/01/07 00:38:28;;;;;;;50.92;3.97;;;;;;;24.95;49.70;99784.88;7306805;19;129658;-39
2023/01/07 00:40:53;;;;;;;58.27;4.40;;;;;;;24.75;50.11;99788.69;7300718;19;129587;-38
2023/01/07 00:43:19;;;;;;;51.07;4.00;;;;;;;24.51;50.95;99775.38;7305802;19;130063;-37
2023/01/07 00:45:44;;;;;;;69.53;5.47;;;;;;;24.54;50.78;99785.59;7303963;19;129795;-38
2023/01/07 00:48:09;;;;;;;48.00;3.67;;;;;;;24.18;51.69;99785.63;7308111;19;129284;-37
2023/01/07 00:50:36;;;;;;;67.68;5.13;;;;;;;24.09;52.35;99786.56;7303750;19;129608;-39
2023/01/07 00:53:03;;;;;;;51.65;4.22;;;;;;;23.87;52.67;99775.63;7305881;19;129981;-37
2023/01/07 00:55:28;;;;;;;57.38;4.53;;;;;;;24.09;51.96;99788.34;7305100;19;129566;-39
2023/01/07 00:57:54;;;;;;;57.47;4.47;;;;;;;24.04;52.45;99780.09;7306680;19;130728;-40
2023/01/07 01:00:22;;;;;;;33.25;3.03;;;;;;;23.79;52.44;99781.63;7304246;19;131323;-38
2023/01/07 01:02:48;;;;;;;46.58;3.55;;;;;;;23.62;53.72;99792.94;7307289;19;129960;-39
2023/01/07 01:05:14;;;;;;;72.72;5.93;;;;;;;23.35;53.83;99779.84;7304155;19;131253;-41
2023/01/07 01:07:40;;;;;;;46.73;3.87;;;;;;;23.19;54.82;99782.22;7306749;19;129742;-37
2023/01/07 01:10:09;;;;;;;73.17;6.03;;;;;;;22.95;55.66;99781.94;7304045;19;129698;-39
2023/01/07 01:12:35;;;;;;;50.38;4.10;;;;;;;22.68;55.58;99779.25;7305680;19;129094;-39
2023/01/07 01:15:07;;;;;;;117.27;9.93;;;;;;;22.54;56.29;99788.41;7303866;19;130209;-34
2023/01/07 01:17:33;;;;;;;59.05;4.72;;;;;;;22.41;56.97;99792.25;7305523;19;130340;-38
2023/01/07 01:19:59;;;;;;;64.93;5.40;;;;;;;22.28;57.56;99787.28;7304986;19;129573;-38
2023/01/07 01:22:24;;;;;;;44.10;3.80;;;;;;;22.13;58.22;99785.25;7305768;19;129861;-39
2023/01/07 01:24:50;;;;;;;56.70;4.35;;;;;;;21.96;58.22;99787.56;7306065;19;129831;-36
2023/01/07 01:27:16;;;;;;;48.10;4.00;;;;;;;21.90;58.80;99782.88;7303476;19;129601;-38
2023/01/07 01:29:41;;;;;;;70.07;6.10;;;;;;;21.67;59.27;99776.22;7305298;19;130199;-36
2023/01/07 01:32:06;;;;;;;61.47;5.03;;;;;;;21.70;59.05;99786.41;7304607;19;128862;-39
2023/01/07 01:34:32;;;;;;;71.03;5.65;;;;;;;21.58;59.94;99787.50;7305933;19;129318;-38
2023/01/07 01:36:57;;;;;;;39.63;3.10;;;;;;;21.53;60.08;99784.47;7303709;19;130391;-35
2023/01/07 01:39:23;;;;;;;41.67;3.40;;;;;;;21.45;60.04;99794.75;7306678;19;130672;-39
2023/01/07 01:41:48;;;;;;;46.20;3.70;;;;;;;21.34;60.19;99787.03;7300971;19;129162;-39
2023/01/07 01:44:35;;;;;;;57.90;4.53;;;;;;;21.28;60.70;99798.03;7305211;19;130586;-39
2023/01/07 01:47:27;;;;;;;53.90;4.22;;;;;;;21.25;61.19;99792.22;7302979;19;132091;-38
2023/01/07 01:50:00;;;;;;;52.70;4.13;;;;;;;21.17;60.97;99786.84;7302859;19;129578;-39
2023/01/07 01:52:56;;;;;;;61.92;5.20;;;;;;;21.11;61.36;99790.78;7303567;19;129468;-39
2023/01/07 01:55:47;;;;;;;52.45;4.03;;;;;;;21.11;61.74;99788.19;7303988;19;130256;-37
2023/01/07 01:58:18;;;;;;;49.05;3.72;;;;;;;21.07;61.39;99785.97;7305019;19;129378;-38
2023/01/07 02:00:44;;;;;;;52.35;4.60;;;;;;;21.09;61.66;99784.88;7302197;19;130218;-39
2023/01/07 02:03:13;;;;;;;49.65;4.15;;;;;;;21.06;61.71;99779.06;7303551;19;129530;-39
2023/01/07 02:05:40;;;;;;;44.72;3.95;;;;;;;21.10;61.56;99786.53;7304001;19;130265;-39
2023/01/07 02:08:06;;;;;;;57.95;4.55;;;;;;;21.01;61.21;99776.84;7304491;19;130383;-38
2023/01/07 02:10:32;;;;;;;49.00;4.10;;;;;;;20.90;61.74;99763.84;7303476;19;130565;-37
2023/01/07 02:13:25;;;;;;;45.05;3.63;;;;;;;21.06;62.49;99768.63;7304972;19;129466;-37
2023/01/07 02:16:01;;;;;;;38.58;3.15;;;;;;;21.08;61.93;99772.78;7305312;19;129588;-36
2023/01/07 02:18:35;;;;;;;39.88;3.47;;;;;;;21.06;61.22;99768.63;7304934;19;129720;-39
2023/01/07 02:21:03;;;;;;;52.25;4.45;;;;;;;21.10;61.31;99776.09;7301020;19;130767;-37
2023/01/07 02:24:01;;;;;;;57.95;4.57;;;;;;;21.08;61.10;99767.53;7303296;19;130736;-37
2023/01/07 02:27:03;;;;;;;59.20;4.73;;;;;;;21.07;62.50;99763.28;7301754;19;130202;-39
2023/01/07 02:29:53;;;;;;;54.83;4.53;;;;;;;21.05;61.95;99767.81;7300744;19;129734;-37
2023/01/07 02:32:40;;;;;;;48.80;3.83;;;;;;;20.92;61.94;99740.22;7303518;19;129598;-39
2023/01/07 02:35:38;;;;;;;74.22;6.97;;;;;;;21.01;61.59;99757.72;7302241;19;130899;-40
2023/01/07 02:38:32;;;;;;;60.15;4.72;;;;;;;21.05;62.38;99757.34;7303043;19;129831;-36
2023/01/07 02:41:04;;;;;;;21.90;1.95;;;;;;;20.99;62.99;99747.41;7302135;19;130563;-39
2023/01/07 02:43:32;;;;;;;90.80;7.50;;;;;;;20.98;62.35;99745.75;7301864;19;130144;-36
2023/01/07 02:46:20;;;;;;;27.50;2.47;;;;;;;20.91;62.02;99728.91;7302243;19;129958;-40
2023/01/07 02:48:46;;;;;;;52.13;4.78;;;;;;;21.03;61.44;99748.81;7302228;19;129372;-41
2023/01/07 02:51:11;;;;;;;43.80;3.42;;;;;;;21.00;61.84;99749.06;7300541;19;129740;-39
2023/01/07 02:53:39;;;;;;;50.35;4.22;;;;;;;21.00;61.91;99749.06;7303755;19;130118;-36
2023/01/07 02:56:24;;;;;;;46.13;3.70;;;;;;;20.97;63.24;99749.34;7302141;19;130023;-39
2023/01/07 02:59:11;;;;;;;69.43;6.05;;;;;;;20.87;62.44;99738.00;7301437;19;130695;-37
2023/01/07 03:02:03;;;;;;;50.60;4.20;;;;;;;20.95;63.24;99746.00;7301403;19;129554;-37
2023/01/07 03:04:50;;;;;;;46.60;3.90;;;;;;;20.99;62.74;99747.41;7301396;19;129856;-35
2023/01/07 03:07:27;;;;;;;61.35;4.53;;;;;;;21.00;62.73;99746.47;7301618;19;129434;-39
2023/01/07 03:10:14;;;;;;;41.92;3.35;;;;;;;20.99;62.02;99757.84;7300386;19;129683;-37
2023/01/07 03:12:46;;;;;;;50.40;3.85;;;;;;;20.99;62.37;99747.41;7302570;19;130189;-39
2023/01/07 03:15:17;;;;;;;103.95;8.18;;;;;;;20.98;62.05;99755.38;7304572;19;129353;-36
2023/01/07 03:17:50;;;;;;;61.47;4.88;;;;;;;20.98;62.49;99743.16;7309588;19;129503;-39
2023/01/07 03:20:20;;;;;;;40.78;3.35;;;;;;;20.96;61.96;99747.66;7307758;19;130238;-39
2023/01/07 03:22:46;;;;;;;47.25;3.78;;;;;;;20.98;61.66;99761.44;7308175;19;130787;-39
2023/01/07 03:25:13;;;;;;;72.88;5.90;;;;;;;21.10;61.14;99751.72;7308112;19;129375;-39
2023/01/07 03:27:40;;;;;;;;;;;;;;;21.40;60.78;99755.09;7309425;19;129442;-37
2023/01/07 03:30:10;;;;;;;82.68;6.78;;;;;;;21.69;59.35;99742.91;7305614;19;129534;-36
2023/01/07 03:32:44;;;;;;;37.95;3.45;;;;;;;22.02;58.56;99751.31;7308645;19;130746;-40
2023/01/07 03:35:09;;;;;;;79.63;7.20;;;;;;;22.56;56.91;99751.56;7307581;19;131722;-40
2023/01/07 03:37:36;;;;;;;41.50;3.38;;;;;;;23.06;55.25;99760.75;7309913;19;129246;-37
2023/01/07 03:40:05;;;;;;;65.68;5.00;;;;;;;23.03;55.62;99747.94;7307011;19;129811;-39
2023/01/07 03:42:40;;;;;;;45.38;3.63;;;;;;;22.95;55.28;99753.09;7306019;19;129766;-37
2023/01/07 03:45:17;;;;;;;138.38;11.43;;;;;;;22.84;56.18;99748.03;7307170;19;129516;-39
2023/01/07 03:47:47;;;;;;;34.08;2.70;;;;;;;22.71;56.21;99737.06;7308131;19;129213;-38
2023/01/07 03:50:12;;;;;;;81.40;6.82;;;;;;;22.48;56.98;99747.00;7305416;19;129766;-37
2023/01/07 03:52:38;;;;;;;44.08;3.65;;;;;;;22.24;57.67;99722.22;7308334;19;130082;-39
2023/01/07 03:55:04;;;;;;;83.68;7.60;;;;;;;22.26;57.32;99736.03;7308090;19;129097;-38
2023/01/07 03:57:31;;;;;;;45.33;3.80;;;;;;;22.10;58.10;99743.63;7307850;19;130175;-38
2023/01/07 03:59:56;;;;;;;37.38;2.92;;;;;;;21.95;58.75;99733.56;7307663;19;129407;-39
2023/01/07 04:02:22;;;;;;;68.93;5.18;;;;;;;21.81;59.11;99734.00;7305474;19;130371;-38
2023/01/07 04:04:47;;;;;;;32.83;2.70;;;;;;;21.76;58.98;99735.31;7309012;19;129119;-39
2023/01/07 04:07:13;;;;;;;55.70;4.53;;;;;;;21.67;59.54;99730.91;7303766;19;129629;-39
2023/01/07 04:09:38;;;;;;;43.55;3.42;;;;;;;21.54;59.94;99720.72;7308160;19;130811;-39
2023/01/07 04:12:04;;;;;;;68.00;5.87;;;;;;;21.52;60.34;99724.41;7306349;19;130921;-38
2023/01/07 04:14:29;;;;;;;43.83;3.42;;;;;;;21.42;60.38;99728.84;7309463;19;129862;-35
2023/01/07 04:16:54;;;;;;;40.10;3.53;;;;;;;21.34;60.38;99726.03;7305909;19;130305;-38
2023/01/07 04:19:21;;;;;;;69.25;5.53;;;;;;;21.25;60.99;99722.47;7307199;19;129709;-36
2023/01/07 04:21:47;;;;;;;81.15;6.40;;;;;;;21.19;61.01;99712.53;7306800;19;130239;-37
2023/01/07 04:24:12;;;;;;;43.72;3.35;;;;;;;21.09;61.25;99716.91;7307874;19;129377;-37
2023/01/07 04:26:37;;;;;;;45.22;3.83;;;;;;;21.05;61.66;99718.16;7305430;19;129574;-38
2023/01/07 04:29:03;;;;;;;79.10;6.00;;;;;;;21.04;61.93;99718.28;7305028;19;130290;-38
2023/01/07 04:31:28;;;;;;;46.65;3.85;;;;;;;20.99;61.43;99699.56;7304165;19;129570;-40
2023/01/07 04:33:54;;;;;;;35.25;2.78;;;;;;;21.00;61.74;99706.41;7307675;19;129954;-37
2023/01/07 04:36:19;;;;;;;48.55;3.70;;;;;;;20.96;61.54;99711.06;7306885;19;129355;-39
2023/01/07 04:38:45;;;;;;;58.40;4.35;;;;;;;21.03;61.42;99717.44;7306928;19;131011;-41
2023/01/07 04:41:10;;;;;;;47.83;4.07;;;;;;;21.01;61.89;99714.13;7305717;19;130738;-38
2023/01/07 04:43:36;;;;;;;36.55;3.17;;;;;;;21.03;62.06;99720.06;7305341;19;129521;-41
2023/01/07 04:46:03;;;;;;;44.90;3.75;;;;;;;21.03;62.06;99717.44;7306322;19;129357;-38
2023/01/07 04:48:28;;;;;;;;;;;;;;;21.06;62.61;99711.94;7306583;19;129550;-40
2023/01/07 04:50:53;;;;;;;41.13;3.20;;;;;;;21.06;61.63;99711.94;7306394;19;130423;-40
2023/01/07 04:53:19;;;;;;;89.78;7.30;;;;;;;21.04;61.65;99719.09;7306721;19;129402;-38
2023/01/07 04:55:44;;;;;;;50.88;4.07;;;;;;;20.91;62.09;99696.75;7306286;19;129709;-40
2023/01/07 04:58:10;;;;;;;56.40;4.47;;;;;;;21.01;61.93;99714.13;7307620;19;130065;-38
2023/01/07 05:00:35;;;;;;;58.40;4.75;;;;;;;21.01;62.43;99698.44;7302632;19;130254;-38
2023/01/07 05:03:00;;;;;;;50.13;3.88;;;;;;;21.00;62.19;99691.56;7304710;19;130179;-39
2023/01/07 05:05:26;;;;;;;56.05;4.43;;;;;;;20.98;62.08;99696.09;7306411;19;130051;-39
2023/01/07 05:07:51;;;;;;;50.63;3.90;;;;;;;20.97;61.67;99702.31;7306943;19;129152;-38
2023/01/07 05:10:17;;;;;;;51.40;4.07;;;;;;;20.94;61.63;99699.91;7302940;19;129301;-40
2023/01/07 05:12:42;;;;;;;50.33;4.00;;;;;;;20.90;61.85;99701.13;7307721;19;129258;-38
2023/01/07 05:15:08;;;;;;;122.83;10.93;;;;;;;20.92;62.11;99698.38;7304999;19;129580;-37
2023/01/07 05:17:34;;;;;;;48.30;3.88;;;;;;;20.94;61.82;99696.47;7307271;19;130198;-40
2023/01/07 05:19:59;;;;;;;43.67;3.40;;;;;;;20.80;62.45;99674.16;7302304;19;130429;-41
2023/01/07 05:22:24;;;;;;;47.70;3.80;;;;;;;20.93;61.93;99685.19;7302958;19;129601;-39
2023/01/07 05:24:50;;;;;;;51.20;4.03;;;;;;;20.92;62.67;99694.00;7306115;19;129589;-36
2023/01/07 05:27:15;;;;;;;41.85;3.33;;;;;;;20.93;62.02;99687.81;7304169;19;130626;-39
2023/01/07 05:29:40;;;;;;;54.57;4.23;;;;;;;20.90;62.09;99701.13;7305286;19;129465;-39
2023/01/07 05:32:06;;;;;;;61.03;5.13;;;;;;;20.88;61.90;99692.59;7304303;19;129645;-39
2023/01/07 05:34:31;;;;;;;40.15;3.40;;;;;;;20.83;62.80;99679.09;7307401;19;129554;-39
2023/01/07 05:36:57;;;;;;;53.75;4.13;;;;;;;20.90;62.17;99688.06;7301877;19;130260;-40
2023/01/07 05:39:22;;;;;;;49.15;3.83;;;;;;;20.99;61.57;99689.91;7300555;19;130303;-39
2023/01/07 05:41:47;;;;;;;73.13;5.60;;;;;;;21.21;61.64;99694.09;7303757;19;129158;-39
2023/01/07 05:44:13;;;;;;;52.53;3.95;;;;;;;21.58;60.19;99687.25;7305581;19;129826;-39
2023/01/07 05:46:38;;;;;;;43.42;3.80;;;;;;;21.82;59.43;99685.91;7304756;19;130140;-36
2023/01/07 05:49:04;;;;;;;45.03;3.63;;;;;;;22.24;57.94;99685.56;7304959;19;129633;-39
2023/01/07 05:51:29;;;;;;;52.50;4.23;;;;;;;22.80;55.93;99687.22;7302445;19;129807;-39
2023/01/07 05:53:54;;;;;;;42.97;3.47;;;;;;;22.99;54.93;99678.44;7304234;19;129740;-41
2023/01/07 05:56:20;;;;;;;48.85;3.83;;;;;;;23.04;55.65;99694.50;7304377;19;129839;-38
2023/01/07 05:58:45;;;;;;;47.77;3.80;;;;;;;22.85;55.79;99677.13;7303980;19;130376;-39
2023/01/07 06:01:11;;;;;;;54.00;3.90;;;;;;;22.82;55.71;99692.31;7303554;19;129122;-41
2023/01/07 06:03:36;;;;;;;43.92;3.53;;;;;;;22.60;56.74;99692.66;7303642;19;129872;-39
2023/01/07 06:06:05;;;;;;;35.28;2.97;;;;;;;22.49;57.09;99691.03;7304459;19;129365;-39
2023/01/07 06:08:33;;;;;;;53.40;4.07;;;;;;;22.26;57.34;99686.25;7301813;19;130819;-39
2023/01/07 06:10:58;;;;;;;39.15;2.97;;;;;;;22.17;58.43;99701.03;7303600;19;129076;-40
2023/01/07 06:13:23;;;;;;;42.95;3.40;;;;;;;22.06;58.00;99700.34;7304337;19;129278;-37
2023/01/07 06:15:49;;;;;;;23.20;2.03;;;;;;;21.81;59.13;99681.66;7303153;19;130034;-40
2023/01/07 06:18:14;;;;;;;35.40;2.93;;;;;;;21.89;58.85;99694.03;7302283;19;130208;-39
2023/01/07 06:20:39;;;;;;;61.58;4.47;;;;;;;21.61;59.67;99682.59;7303131;19;129379;-39
2023/01/07 06:23:05;;;;;;;83.68;6.75;;;;;;;21.63;60.14;99696.38;7303393;19;129431;-40
2023/01/07 06:25:30;;;;;;;33.23;3.00;;;;;;;21.44;60.38;99685.88;7301985;19;130118;-37
2023/01/07 06:27:57;;;;;;;51.00;4.17;;;;;;;21.35;60.68;99676.25;7304121;19;130974;-35
2023/01/07 06:30:22;;;;;;;56.20;4.03;;;;;;;21.38;60.46;99686.44;7300693;19;129286;-37
2023/01/07 06:32:48;;;;;;;47.88;3.75;;;;;;;21.28;60.87;99690.81;7305345;19;129685;-40
2023/01/07 06:35:13;;;;;;;61.42;5.28;;;;;;;21.20;60.77;99688.06;7300497;19;130329;-37
2023/01/07 06:37:38;;;;;;;47.60;4.00;;;;;;;21.14;61.28;99685.16;7304644;19;130392;-38
2023/01/07 06:40:05;;;;;;;44.63;3.60;;;;;;;21.08;61.68;99689.13;7299537;19;129695;-39
2023/01/07 06:42:30;;;;;;;40.38;3.22;;;;;;;21.05;61.38;99691.16;7301201;19;129325;-38
2023/01/07 06:44:56;;;;;;;63.00;5.32;;;;;;;20.97;61.75;99691.84;7300838;19;130127;-39
2023/01/07 06:47:21;;;;;;;39.80;3.03;;;;;;;21.00;62.08;99695.97;7304530;19;130646;-40
2023/01/07 06:49:46;;;;;;;46.58;3.75;;;;;;;20.94;61.83;99699.09;7299327;19;129406;-38
2023/01/07 06:52:12;;;;;;;50.37;3.93;;;;;;;20.89;62.36;99698.66;7302642;19;129407;-39
2023/01/07 06:54:37;;;;;;;40.37;3.57;;;;;;;20.95;61.91;99701.56;7300614;19;129971;-39
2023/01/07 06:57:03;;;;;;;62.20;4.80;;;;;;;20.95;61.92;99691.13;7301612;19;131052;-40
2023/01/07 06:59:31;;;;;;;65.68;5.45;;;;;;;21.00;62.11;99701.19;7298339;19;129919;-37
2023/01/07 07:01:56;;;;;;;53.22;4.25;;;;;;;20.90;61.56;99677.63;7301600;19;129177;-39
2023/01/07 07:04:22;;;;;;;49.28;3.75;;;;;;;21.02;62.14;99697.50;7302288;19;129326;-39
2023/01/07 07:06:47;;;;;;;54.13;3.97;;;;;;;20.88;62.19;99681.31;7301117;19;129330;-40
2023/01/07 07:09:13;;;;;;;64.97;5.40;;;;;;;21.04;61.55;99700.78;7302762;19;129812;-38
2023/01/07 07:11:38;;;;;;;44.73;3.63;;;;;;;21.02;62.24;99704.50;7299332;19;129634;-40
2023/01/07 07:14:04;;;;;;;58.60;4.47;;;;;;;21.01;61.68;99708.91;7302361;19;129728;-40
2023/01/07 07:16:29;;;;;;;56.07;4.30;;;;;;;21.00;62.06;99707.25;7298353;19;129555;-39
2023/01/07 07:18:55;;;;;;;39.13;3.28;;;;;;;21.04;62.15;99702.59;7303332;19;129533;-38
2023/01/07 07:21:20;;;;;;;65.60;4.67;;;;;;;21.00;61.68;99704.66;7293981;19;131199;-34
2023/01/07 07:23:46;;;;;;;48.20;3.95;;;;;;;21.00;62.56;99707.25;7302009;19;130812;-40
2023/01/07 07:26:12;;;;;;;62.70;4.78;;;;;;;20.97;62.34;99702.31;7298768;19;130405;-39
2023/01/07 07:28:38;;;;;;;54.60;4.27;;;;;;;20.96;62.24;99705.81;7300584;19;129633;-40
2023/01/07 07:31:03;;;;;;;53.97;4.03;;;;;;;20.84;62.03;99687.78;7299373;19;129967;-36
2023/01/07 07:33:29;;;;;;;52.70;3.88;;;;;;;20.95;62.63;99712.03;7299228;19;130719;-39
2023/01/07 07:35:55;;;;;;;54.67;4.22;;;;;;;20.94;62.24;99712.16;7298417;19;129560;-39
2023/01/07 07:38:21;;;;;;;49.13;3.83;;;;;;;21.03;61.79;99707.00;7300864;19;130366;-39
2023/01/07 07:40:46;;;;;;;41.40;3.33;;;;;;;20.99;62.27;99705.59;7299249;19;129914;-38
2023/01/07 07:43:13;;;;;;;49.38;3.70;;;;;;;21.07;61.69;99697.94;7297353;19;129618;-38
2023/01/07 07:45:40;;;;;;;56.90;4.45;;;;;;;21.35;60.61;99694.53;7298179;19;129827;-39
2023/01/07 07:48:06;;;;;;;69.95;5.55;;;;;;;21.68;59.60;99699.38;7297283;19;130993;-40
2023/01/07 07:50:32;;;;;;;;;;;;;;;21.92;58.88;99689.34;7297190;19;130524;-39
2023/01/07 07:52:57;;;;;;;131.20;11.07;;;;;;;22.41;57.62;99684.84;7293913;19;129549;-41
2023/01/07 07:55:23;;;;;;;48.50;3.55;;;;;;;22.89;56.20;99688.13;7296977;19;129460;-38
2023/01/07 07:57:51;;;;;;;45.10;3.47;;;;;;;23.05;55.37;99693.56;7301981;19;129791;-37
2023/01/07 08:00:17;;;;;;;175.85;15.07;;;;;;;22.97;55.81;99690.84;7288134;19;130035;-40
2023/01/07 08:02:42;;;;;;;50.78;3.90;;;;;;;22.90;55.82;99692.41;7300038;19;130022;-40
2023/01/07 08:05:10;;;;;;;120.70;9.38;;;;;;;22.69;56.67;99676.09;7303046;19;130391;-37
2023/01/07 08:07:35;;;;;;;55.47;4.63;;;;;;;22.59;56.78;99677.91;7297498;19;131213;-39
2023/01/07 08:10:01;;;;;;;75.38;6.20;;;;;;;22.37;57.63;99678.22;7296944;19;129391;-39
2023/01/07 08:12:26;;;;;;;56.80;4.40;;;;;;;22.17;57.44;99668.75;7305824;19;129651;-39
2023/01/07 08:14:52;;;;;;;54.73;4.30;;;;;;;22.10;58.31;99681.59;7302958;19;130934;-40
2023/01/07 08:17:17;;;;;;;39.97;3.07;;;;;;;22.01;58.44;99684.22;7309109;19;129540;-39
2023/01/07 08:19:42;;;;;;;40.13;3.47;;;;;;;21.92;58.68;99680.66;7304709;19;129306;-40
2023/01/07 08:22:08;;;;;;;101.82;8.20;;;;;;;21.79;58.99;99680.13;7301575;19;130747;-38
2023/01/07 08:24:33;;;;;;;56.40;4.85;;;;;;;21.68;59.71;99690.72;7306982;19;129666;-38
2023/01/07 08:26:58;;;;;;;39.97;3.13;;;;;;;21.61;59.82;99679.13;7306088;19;129808;-38
2023/01/07 08:29:24;;;;;;;43.33;3.38;;;;;;;21.50;59.88;99687.94;7303688;19;129453;-39
2023/01/07 08:31:50;;;;;;;56.05;4.18;;;;;;;21.40;60.15;99684.47;7307206;19;130111;-40
2023/01/07 08:34:15;;;;;;;54.38;4.35;;;;;;;21.31;60.49;99682.69;7300930;19;129724;-39
2023/01/07 08:36:41;;;;;;;58.05;4.55;;;;;;;21.23;61.42;99690.38;7303883;19;129353;-37
2023/01/07 08:39:06;;;;;;;33.63;2.63;;;;;;;21.17;61.71;99688.28;7303526;19;130474;-38
2023/01/07 08:41:31;;;;;;;65.90;5.10;;;;;;;20.99;61.46;99663.75;7304940;19;129502;-40
2023/01/07 08:43:57;;;;;;;60.33;5.28;;;;;;;21.08;61.71;99683.06;7302676;19;129703;-37
2023/01/07 08:46:22;;;;;;;57.97;4.45;;;;;;;21.04;61.59;99674.66;7306603;19;129397;-39
2023/01/07 08:48:47;;;;;;;111.07;9.20;;;;;;;21.02;61.49;99679.22;7305167;19;129203;-40
2023/01/07 08:51:13;;;;;;;57.45;4.47;;;;;;;20.97;62.23;99681.41;7304547;19;132775;-36
2023/01/07 08:53:38;;;;;;;47.58;3.72;;;;;;;20.83;62.11;99660.81;7305294;19;130650;-38
2023/01/07 08:56:04;;;;;;;52.25;4.05;;;;;;;20.96;62.50;99677.06;7301782;19;130452;-39
2023/01/07 08:58:29;;;;;;;50.30;3.77;;;;;;;20.94;62.27;99672.97;7307954;19;129399;-38
2023/01/07 09:01:00;;;;;;;40.80;3.30;;;;;;;20.98;61.95;99677.81;7300803;19;129732;-39
2023/01/07 09:03:26;;;;;;;52.38;3.97;;;;;;;21.00;61.70;99669.84;7302378;19;131882;-36
2023/01/07 09:05:51;;;;;;;42.95;3.42;;;;;;;20.95;62.42;99678.03;7300767;19;130685;-38
2023/01/07 09:08:16;;;;;;;53.08;4.00;;;;;;;20.91;61.96;99674.03;7306186;19;129210;-40
2023/01/07 09:10:42;;;;;;;53.05;4.07;;;;;;;20.95;62.13;99675.44;7302404;19;130745;-37
2023/01/07 09:15:35;;;;;;;37.10;3.90;;;;;;;20.92;61.13;99675.72;7304491;19;129667;-37
2023/01/07 09:18:02;;;;;;;48.35;4.85;;;;;;;20.88;59.13;99671.69;7306198;19;129093;-42
2023/01/07 09:20:28;;;;;;;44.38;5.22;;;;;;;20.90;60.66;99669.78;7298169;19;130723;-36
2023/01/07 09:22:53;;;;;;;27.13;3.50;;;;;;;20.95;60.68;99662.38;7303670;19;129655;-41
2023/01/07 09:25:19;;;;;;;32.73;3.57;;;;;;;21.06;61.35;99669.28;7298338;19;130462;-42
2023/01/07 09:27:44;;;;;;;68.28;7.07;;;;;;;21.05;60.03;99658.03;7303863;19;130540;-42
2023/01/07 09:30:11;;;;;;;30.98;3.72;;;;;;;21.08;57.33;99662.13;7302889;19;131269;-38
2023/01/07 09:32:36;;;;;;;62.00;7.95;;;;;;;21.15;59.61;99658.88;7301582;19;130509;-41
2023/01/07 09:35:02;;;;;;;51.77;7.00;;;;;;;21.21;59.67;99653.09;7301329;19;130672;-34
2023/01/07 09:37:28;;;;;;;52.38;5.00;;;;;;;21.17;55.30;99651.69;7306412;19;129799;-38
2023/01/07 09:39:53;;;;;;;38.60;4.53;;;;;;;21.15;59.15;99650.19;7301251;19;130313;-38
2023/01/07 09:42:24;;;;;;;37.47;4.45;;;;;;;21.07;59.04;99634.34;7304290;19;129415;-32
2023/01/07 09:45:09;;;;;;;49.47;5.32;;;;;;;21.22;59.56;99646.88;7302654;19;129737;-43
2023/01/07 09:47:36;;;;;;;51.95;5.22;;;;;;;21.25;56.76;99648.41;7306575;19;129266;-35
2023/01/07 09:50:23;;;;;;;44.78;4.72;;;;;;;20.89;49.81;99643.78;7296219;19;131092;-36
2023/01/07 09:52:52;;;;;;;41.17;4.60;;;;;;;20.71;47.67;99638.34;7304612;19;131135;-35
2023/01/07 09:55:24;;;;;;;40.05;5.38;;;;;;;20.95;48.53;99635.41;7304112;19;129292;-33
2023/01/07 09:57:49;;;;;;;34.97;4.45;;;;;;;21.32;49.24;99639.88;7305886;19;129520;-41
2023/01/07 10:00:21;;;;;;;38.47;3.95;;;;;;;21.57;51.03;99641.94;7304623;19;129653;-41
2023/01/07 10:03:24;;;;;;;46.85;5.50;;;;;;;21.77;51.59;99627.94;7296831;19;129314;-39
2023/01/07 10:05:59;;;;;;;33.15;3.92;;;;;;;22.48;50.42;99625.66;7303276;19;129793;-40
2023/01/07 10:08:36;;;;;;;45.83;5.40;;;;;;;22.52;50.19;99627.03;7299423;19;129452;-42
2023/01/07 10:11:23;;;;;;;44.58;4.85;;;;;;;22.58;50.16;99619.44;7301880;19;129544;-36
2023/01/07 10:14:32;;;;;;;49.70;5.17;;;;;;;22.37;50.48;99603.09;7298390;19;131150;-40
2023/01/07 10:17:28;;;;;;;39.17;4.63;;;;;;;22.26;51.36;99615.56;7304489;19;129120;-39
2023/01/07 10:20:16;;;;;;;27.88;3.47;;;;;;;22.15;51.46;99607.88;7300505;19;129527;-34
2023/01/07 10:23:06;;;;;;;34.88;4.03;;;;;;;22.01;52.80;99613.56;7303260;19;129859;-38
2023/01/07 10:25:39;;;;;;;40.33;4.90;;;;;;;21.86;52.48;99611.41;7299472;19;129747;-38
2023/01/07 10:28:12;;;;;;;33.17;4.07;;;;;;;21.74;53.28;99609.03;7305463;19;129921;-36
2023/01/07 10:30:43;;;;;;;44.90;5.15;;;;;;;21.57;53.55;99607.94;7296365;19;129254;-38
2023/01/07 10:33:18;;;;;;;44.92;4.90;;;;;;;21.42;54.25;99585.78;7302670;19;130462;-40
2023/01/07 10:35:47;;;;;;;31.85;3.88;;;;;;;21.38;54.73;99597.50;7299971;19;129844;-38
2023/01/07 10:38:18;;;;;;;40.53;4.50;;;;;;;21.31;54.72;99596.41;7303583;19;129327;-37
2023/01/07 10:40:52;;;;;;;28.35;3.55;;;;;;;21.19;54.17;99587.03;7300959;19;129279;-34
2023/01/07 10:44:00;;;;;;;41.72;4.60;;;;;;;21.12;55.20;99585.91;7298242;19;129722;-36
2023/01/07 10:46:59;;;;;;;50.88;6.20;;;;;;;21.07;55.13;99592.53;7300221;19;130445;-36
2023/01/07 10:49:49;;;;;;;30.30;3.30;;;;;;;20.97;55.81;99579.47;7304654;19;130303;-35
2023/01/07 10:52:17;;;;;;;42.35;4.82;;;;;;;20.93;56.00;99585.88;7300181;19;130983;-39
2023/01/07 10:55:11;;;;;;;39.15;4.50;;;;;;;20.92;56.58;99576.41;7303202;19;131660;-34
2023/01/07 10:57:37;;;;;;;40.85;4.50;;;;;;;20.86;56.55;99556.00;7300123;19;130454;-36
2023/01/07 11:00:06;;;;;;;33.37;3.70;;;;;;;20.86;56.45;99558.63;7303040;19;129818;-36
2023/01/07 11:02:31;;;;;;;61.10;6.55;;;;;;;20.86;57.17;99553.41;7301969;19;129268;-37
2023/01/07 11:04:58;;;;;;;38.20;4.90;;;;;;;20.83;57.22;99548.47;7300360;19;130937;-40
2023/01/07 11:07:39;;;;;;;48.00;5.60;;;;;;;20.87;57.51;99539.41;7300458;19;131061;-33
2023/01/07 11:10:10;;;;;;;26.08;3.35;;;;;;;20.88;58.58;99541.03;7295073;19;130086;-40
2023/01/07 11:12:45;;;;;;;46.75;5.30;;;;;;;20.91;58.81;99535.53;7298396;19;130029;-36
2023/01/07 11:15:27;;;;;;;81.40;9.73;;;;;;;20.93;58.91;99538.00;7296800;19;130582;-35
2023/01/07 11:17:59;;;;;;;45.33;4.90;;;;;;;20.99;58.99;99527.84;7300519;19;129586;-35
2023/01/07 11:20:46;;;;;;;25.30;3.00;;;;;;;21.05;58.19;99522.09;7300571;19;129271;-36
2023/01/07 11:23:18;;;;;;;37.58;4.07;;;;;;;21.04;59.17;99503.94;7299061;19;129828;-33
2023/01/07 11:25:44;;;;;;;39.13;4.50;;;;;;;21.13;58.67;99517.00;7299682;19;130285;-44
2023/01/07 11:28:17;;;;;;;41.53;4.67;;;;;;;21.17;59.78;99507.09;7299342;19;130714;-42
2023/01/07 11:30:43;;;;;;;43.15;5.05;;;;;;;21.17;58.28;99501.88;7298196;19;129690;-35